createdAt,value
2023-01-18T07:59:28.147Z,98889.63
2023-01-18T08:05:10.823Z,98882.16
2023-01-18T08:07:37.743Z,98887.53
2023-01-18T08:10:09.223Z,98893.06
2023-01-18T08:18:31.241Z,98887.03
2023-01-18T08:20:58.542Z,98880.47
2023-01-18T08:23:25.625Z,98893.09
2023-01-18T08:25:52.528Z,98891.81
2023-01-18T08:28:19.756Z,98889.03
2023-01-18T08:30:48.900Z,98886.94
2023-01-18T08:33:15.833Z,98888.06
2023-01-18T08:35:46.354Z,98892.97
2023-01-18T08:38:16.131Z,98893.06
2023-01-18T08:40:43.466Z,98888.34
2023-01-18T08:43:12.041Z,98898.31
2023-01-18T08:45:39.002Z,98896.31
2023-01-18T08:48:10.252Z,98899.84
2023-01-18T08:50:39.061Z,98896.84
2023-01-18T08:53:06.592Z,98899.09
2023-01-18T08:55:36.417Z,98911.13
2023-01-18T08:58:03.306Z,98908.56
2023-01-18T09:00:30.549Z,98910.81
2023-01-18T09:02:59.162Z,98910.41
2023-01-18T09:05:27.041Z,98921.41
2023-01-18T09:07:55.906Z,98912.50
2023-01-18T09:10:23.289Z,98917.84
2023-01-18T09:12:52.795Z,98925.19
2023-01-18T09:15:20.643Z,98919.97
2023-01-18T09:17:47.536Z,98917.38
2023-01-18T09:20:16.073Z,98923.09
2023-01-18T09:22:47.772Z,98927.97
2023-01-18T09:25:17.917Z,98936.31
2023-01-18T09:27:46.572Z,98936.13
2023-01-18T09:30:16.068Z,98930.66
2023-01-18T09:32:43.066Z,98937.38
2023-01-18T09:35:10.337Z,98931.41
2023-01-18T09:37:37.475Z,98936.34
2023-01-18T09:40:05.059Z,98935.97
2023-01-18T09:42:38.738Z,98942.78
2023-01-18T09:45:06.834Z,98931.78
2023-01-18T09:47:46.253Z,98943.03
2023-01-18T09:50:16.380Z,98935.19
2023-01-18T09:52:58.721Z,98944.59
2023-01-18T09:55:48.274Z,98939.63
2023-01-18T09:59:07.033Z,98936.53
2023-01-18T10:01:35.805Z,98936.31
2023-01-18T10:04:17.345Z,98934.00
2023-01-18T10:07:00.102Z,98937.00
2023-01-18T10:09:36.615Z,98931.75
2023-01-18T10:12:09.731Z,98931.22
2023-01-18T10:15:01.211Z,98932.88
2023-01-18T10:17:40.668Z,98936.09
2023-01-18T10:20:17.850Z,98943.59
2023-01-18T10:23:25.818Z,98927.44
2023-01-18T10:26:07.809Z,98936.50
2023-01-18T10:29:01.274Z,98941.03
2023-01-18T10:32:04.270Z,98937.06
2023-01-18T10:34:35.727Z,98942.13
2023-01-18T10:37:14.984Z,98950.44
2023-01-18T10:39:51.519Z,98948.59
2023-01-18T10:42:24.009Z,98952.56
2023-01-18T10:44:52.409Z,98951.78
2023-01-18T10:47:20.400Z,98955.25
2023-01-18T10:49:50.613Z,98953.94
2023-01-18T10:52:18.262Z,98959.53
2023-01-18T10:54:59.660Z,98966.44
2023-01-18T10:57:32.210Z,98969.38
2023-01-18T10:59:59.794Z,98960.84
2023-01-18T11:02:36.339Z,98959.25
2023-01-18T11:05:28.797Z,98965.63
2023-01-18T11:08:24.334Z,98958.16
2023-01-18T11:11:18.818Z,98959.94
2023-01-18T11:13:50.349Z,98966.56
2023-01-18T11:16:23.060Z,98968.19
2023-01-18T11:19:06.116Z,98970.28
2023-01-18T11:21:41.087Z,98976.91
2023-01-18T11:24:17.788Z,98978.78
2023-01-18T11:26:54.716Z,98982.25
2023-01-18T11:29:28.270Z,98972.91
2023-01-18T11:32:01.202Z,98977.72
2023-01-18T11:34:39.074Z,98982.25
2023-01-18T11:37:34.935Z,98984.91
2023-01-18T11:40:28.863Z,98987.81
2023-01-18T11:43:29.652Z,98984.06
2023-01-18T11:46:05.981Z,98973.94
2023-01-18T11:48:48.949Z,98984.31
2023-01-18T11:51:38.883Z,98983.50
2023-01-18T11:54:29.122Z,98987.78
2023-01-18T11:56:59.711Z,98983.78
2023-01-18T11:59:37.499Z,98987.78
2023-01-18T12:02:10.192Z,98987.22
2023-01-18T12:05:12.857Z,98983.78
2023-01-18T12:08:03.607Z,98990.94
2023-01-18T12:10:54.652Z,98988.28
2023-01-18T12:13:43.592Z,98992.00
2023-01-18T12:16:20.106Z,98990.38
2023-01-18T12:19:30.699Z,99001.56
2023-01-18T12:22:50.219Z,99003.69
2023-01-18T12:25:44.241Z,99005.28
2023-01-18T12:28:37.931Z,99012.19
2023-01-18T12:31:19.747Z,99012.72
2023-01-18T12:34:08.239Z,99014.84
2023-01-18T12:37:14.007Z,99021.22
2023-01-18T12:40:08.748Z,99025.19
2023-01-18T12:42:54.398Z,99020.13
2023-01-18T12:46:04.709Z,99030.50
2023-01-18T12:48:48.517Z,99030.75
2023-01-18T12:51:21.759Z,99030.75
2023-01-18T12:54:34.638Z,99051.53
2023-01-18T12:57:04.126Z,99056.84
2023-01-18T12:59:52.775Z,99043.56
2023-01-18T13:02:45.826Z,99054.97
2023-01-18T13:05:26.786Z,99062.97
2023-01-18T13:08:06.360Z,99060.56
2023-01-18T13:10:34.810Z,99068.78
2023-01-18T13:13:04.249Z,99072.25
2023-01-18T13:16:04.333Z,99073.03
2023-01-18T13:18:57.946Z,99074.03
2023-01-18T13:22:00.034Z,99075.84
2023-01-18T13:24:42.865Z,99083.53
2023-01-18T13:27:13.279Z,99081.38
2023-01-18T13:29:41.212Z,99085.88
2023-01-18T13:32:28.937Z,99092.81
2023-01-18T13:35:17.972Z,99088.78
2023-01-18T13:37:51.719Z,99089.84
2023-01-18T13:40:42.730Z,99108.69
2023-01-18T13:43:37.382Z,99108.13
2023-01-18T13:46:07.525Z,99111.28
2023-01-18T13:48:57.239Z,99109.69
2023-01-18T13:51:47.357Z,99117.66
2023-01-18T13:54:21.178Z,99120.81
2023-01-18T13:57:05.873Z,99126.69
2023-01-18T13:59:39.148Z,99126.59
2023-01-18T14:02:34.492Z,99133.47
2023-01-18T14:05:28.469Z,99138.22
2023-01-18T14:07:59.141Z,99138.97
2023-01-18T14:10:33.128Z,99148.47
2023-01-18T14:13:04.440Z,99154.28
2023-01-18T14:15:52.443Z,99155.03
2023-01-18T14:18:30.952Z,99166.13
2023-01-18T14:21:28.417Z,99175.88
2023-01-18T14:24:07.119Z,99177.94
2023-01-18T14:26:38.186Z,99182.84
2023-01-18T14:29:11.176Z,99184.16
2023-01-18T14:31:45.678Z,99188.66
2023-01-18T14:34:30.228Z,99192.84
2023-01-18T14:36:58.180Z,99195.19
2023-01-18T14:39:26.039Z,99198.06
2023-01-18T14:42:04.095Z,99204.91
2023-01-18T14:44:57.429Z,99198.72
2023-01-18T14:47:30.689Z,99217.56
2023-01-18T14:49:58.717Z,99219.66
2023-01-18T14:52:31.074Z,99231.06
2023-01-18T14:54:58.287Z,99224.16
2023-01-18T14:57:25.472Z,99231.88
2023-01-18T15:00:08.592Z,99236.59
2023-01-18T15:02:38.829Z,99242.16
2023-01-18T15:05:17.630Z,99249.81
2023-01-18T15:07:55.876Z,99242.63
2023-01-18T15:10:24.139Z,99243.13
2023-01-18T15:12:55.353Z,99246.03
2023-01-18T15:15:31.237Z,99249.22
2023-01-18T15:18:11.385Z,99251.09
2023-01-18T15:20:52.209Z,99258.47
2023-01-18T15:23:19.807Z,99258.13
2023-01-18T15:25:51.527Z,99269.22
2023-01-18T15:28:24.012Z,99278.94
2023-01-18T15:30:56.178Z,99282.31
2023-01-18T15:33:25.505Z,99285.34
2023-01-18T15:36:04.291Z,99281.00
2023-01-18T15:38:31.597Z,99285.41
2023-01-18T15:41:05.303Z,99299.22
2023-01-18T15:43:43.755Z,99303.16
2023-01-18T15:46:15.268Z,99312.16
2023-01-18T15:48:55.934Z,99308.38
2023-01-18T15:51:44.152Z,99318.41
2023-01-18T15:54:19.899Z,99322.91
2023-01-18T15:56:48.287Z,99324.75
2023-01-18T15:59:22.363Z,99326.03
2023-01-18T16:02:19.732Z,99325.00
2023-01-18T16:04:47.113Z,99344.03
2023-01-18T16:07:30.781Z,99331.25
2023-01-18T16:10:30.179Z,99346.34
2023-01-18T16:13:26.474Z,99346.00
2023-01-18T16:16:21.419Z,99353.06
2023-01-18T16:19:05.705Z,99346.16
2023-01-18T16:21:41.799Z,99351.69
2023-01-18T16:24:31.384Z,99359.88
2023-01-18T16:27:33.785Z,99365.63
2023-01-18T16:30:14.713Z,99369.31
2023-01-18T16:32:41.691Z,99363.47
2023-01-18T16:35:09.965Z,99375.91
2023-01-18T16:37:41.413Z,99375.09
2023-01-18T16:40:09.469Z,99379.25
2023-01-18T16:43:01.471Z,99384.09
2023-01-18T16:45:30.986Z,99406.31
2023-01-18T16:47:58.030Z,99391.69
2023-01-18T16:50:25.573Z,99401.25
2023-01-18T16:52:52.803Z,99402.63
2023-01-18T16:55:19.666Z,99405.84
2023-01-18T16:57:46.803Z,99406.91
2023-01-18T17:00:21.808Z,99411.72
2023-01-18T17:02:49.385Z,99418.06
2023-01-18T17:05:16.776Z,99419.91
2023-01-18T17:07:44.446Z,99428.31
2023-01-18T17:10:45.484Z,99428.09
2023-01-18T17:13:12.470Z,99423.25
2023-01-18T17:15:43.760Z,99434.66
2023-01-18T17:18:17.323Z,99433.41
2023-01-18T17:20:44.977Z,99435.47
2023-01-18T17:23:12.404Z,99443.66
2023-01-18T17:25:39.670Z,99454.03
2023-01-18T17:28:07.950Z,99458.53
2023-01-18T17:30:35.123Z,99453.22
2023-01-18T17:33:02.196Z,99444.34
2023-01-18T17:35:29.439Z,99458.75
2023-01-18T17:38:04.617Z,99466.47
2023-01-18T17:40:39.925Z,99458.97
2023-01-18T17:43:33.024Z,99479.94
2023-01-18T17:46:06.376Z,99470.84
2023-01-18T17:48:33.845Z,99470.75
2023-01-18T17:51:00.800Z,99476.84
2023-01-18T17:53:27.982Z,99478.06
2023-01-18T17:55:54.942Z,99489.94
2023-01-18T17:58:21.871Z,99482.69
2023-01-18T18:00:48.769Z,99484.28
2023-01-18T18:03:16.060Z,99482.69
2023-01-18T18:05:43.608Z,99496.38
2023-01-18T18:08:10.567Z,99491.09
2023-01-18T18:10:37.675Z,99500.66
2023-01-18T18:13:04.629Z,99501.09
2023-01-18T18:15:31.807Z,99510.66
2023-01-18T18:17:58.766Z,99507.69
2023-01-18T18:20:25.753Z,99517.69
2023-01-18T18:22:52.570Z,99512.69
2023-01-18T18:25:19.788Z,99525.59
2023-01-18T18:27:47.428Z,99515.66
2023-01-18T18:30:17.576Z,99526.50
2023-01-18T18:32:44.580Z,99529.00
2023-01-18T18:35:24.523Z,99523.59
2023-01-18T18:37:53.669Z,99531.63
2023-01-18T18:40:21.131Z,99536.44
2023-01-18T18:43:00.821Z,99535.84
2023-01-18T18:45:33.461Z,99543.88
2023-01-18T18:48:00.886Z,99541.34
2023-01-18T18:50:28.755Z,99548.09
2023-01-18T18:52:55.952Z,99543.91
2023-01-18T18:55:23.770Z,99549.06
2023-01-18T18:57:50.712Z,99562.94
2023-01-18T19:00:18.375Z,99567.28
2023-01-18T19:02:45.651Z,99565.97
2023-01-18T19:05:12.544Z,99564.81
2023-01-18T19:07:39.739Z,99571.34
2023-01-18T19:10:07.419Z,99574.28
2023-01-18T19:12:34.831Z,99586.13
2023-01-18T19:15:01.892Z,99586.78
2023-01-18T19:17:31.704Z,99574.81
2023-01-18T19:19:59.446Z,99588.03
2023-01-18T19:22:26.445Z,99586.84
2023-01-18T19:24:53.439Z,99585.44
2023-01-18T19:27:21.458Z,99588.31
2023-01-18T19:29:48.497Z,99593.81
2023-01-18T19:32:15.666Z,99593.66
2023-01-18T19:34:42.516Z,99592.28
2023-01-18T19:37:09.605Z,99600.19
2023-01-18T19:39:36.537Z,99601.66
2023-01-18T19:42:03.733Z,99601.88
2023-01-18T19:44:30.547Z,99610.84
2023-01-18T19:46:57.693Z,99605.75
2023-01-18T19:49:25.743Z,99600.31
2023-01-18T19:51:54.278Z,99599.94
2023-01-18T19:54:21.612Z,99610.53
2023-01-18T19:56:48.550Z,99615.41
2023-01-18T19:59:15.738Z,99618.03
2023-01-18T20:01:43.360Z,99619.50
2023-01-18T20:04:10.822Z,99623.97
2023-01-18T20:06:39.416Z,99620.38
2023-01-18T20:09:18.544Z,99624.03
2023-01-18T20:11:47.365Z,99624.09
2023-01-18T20:14:14.621Z,99622.72
2023-01-18T20:16:43.899Z,99623.97
2023-01-18T20:19:14.252Z,99626.22
2023-01-18T20:21:41.476Z,99626.88
2023-01-18T20:24:09.143Z,99634.03
2023-01-18T20:26:39.620Z,99635.69
2023-01-18T20:29:08.399Z,99644.66
2023-01-18T20:31:37.262Z,99639.03
2023-01-18T20:34:05.329Z,99642.69
2023-01-18T20:36:34.758Z,99642.50
2023-01-18T20:39:03.617Z,99649.81
2023-01-18T20:41:30.645Z,99645.00
2023-01-18T20:43:57.659Z,99651.72
2023-01-18T20:46:24.599Z,99654.97
2023-01-18T20:48:51.448Z,99658.25
2023-01-18T20:51:18.661Z,99668.19
2023-01-18T20:53:45.732Z,99667.63
2023-01-18T20:56:27.856Z,99663.19
2023-01-18T20:58:56.294Z,99662.19
2023-01-18T21:01:23.649Z,99674.38
2023-01-18T21:03:56.088Z,99676.41
2023-01-18T21:06:23.607Z,99675.59
2023-01-18T21:08:55.679Z,99683.53
2023-01-18T21:11:23.565Z,99686.78
2023-01-18T21:13:52.646Z,99687.19
2023-01-18T21:16:20.059Z,99689.66
2023-01-18T21:18:47.970Z,99687.44
2023-01-18T21:21:15.218Z,99700.81
2023-01-18T21:23:42.276Z,99711.56
2023-01-18T21:26:12.139Z,99709.34
2023-01-18T21:28:39.489Z,99690.91
2023-01-18T21:31:07.057Z,99708.34
2023-01-18T21:33:34.555Z,99708.97
2023-01-18T21:36:12.649Z,99711.38
2023-01-18T21:38:39.669Z,99711.41
2023-01-18T21:41:25.161Z,99721.53
2023-01-18T21:44:12.498Z,99725.59
2023-01-18T21:46:48.345Z,99726.81
2023-01-18T21:49:52.188Z,99722.56
2023-01-18T21:52:39.944Z,99721.34
2023-01-18T21:55:07.190Z,99720.31
2023-01-18T21:57:35.071Z,99719.91
2023-01-18T22:00:02.401Z,99710.78
2023-01-18T22:02:35.098Z,99713.63
2023-01-18T22:05:04.859Z,99715.22
2023-01-18T22:07:35.059Z,99721.50
2023-01-18T22:10:05.709Z,99728.81
2023-01-18T22:12:35.300Z,99723.13
2023-01-18T22:15:04.636Z,99750.72
2023-01-18T22:17:31.923Z,99746.84
2023-01-18T22:19:59.216Z,99746.84
2023-01-18T22:22:26.243Z,99758.19
2023-01-18T22:24:53.515Z,99754.97
2023-01-18T22:27:20.385Z,99740.34
2023-01-18T22:29:47.203Z,99764.06
2023-01-18T22:32:14.384Z,99766.31
2023-01-18T22:34:41.267Z,99769.75
2023-01-18T22:37:08.139Z,99771.97
2023-01-18T22:39:35.162Z,99778.06
2023-01-18T22:42:02.012Z,99773.59
2023-01-18T22:44:29.088Z,99790.00
2023-01-18T22:46:55.968Z,99775.59
2023-01-18T22:49:23.209Z,99782.69
2023-01-18T22:51:50.016Z,99780.47
2023-01-18T22:54:19.269Z,99779.84
2023-01-18T22:56:46.122Z,99792.81
2023-01-18T22:59:13.590Z,99796.06
2023-01-18T23:01:40.655Z,99802.94
2023-01-18T23:04:07.514Z,99801.53
2023-01-18T23:06:45.730Z,99792.38
2023-01-18T23:09:17.582Z,99797.03
2023-01-18T23:11:47.266Z,99804.13
2023-01-18T23:14:32.727Z,99807.56
2023-01-18T23:17:18.407Z,99801.09
2023-01-18T23:19:45.888Z,99801.69
2023-01-18T23:22:12.942Z,99802.06
2023-01-18T23:24:40.384Z,99792.75
2023-01-18T23:27:11.811Z,99804.28
2023-01-18T23:29:39.233Z,99802.66
2023-01-18T23:32:08.452Z,99792.94
2023-01-18T23:34:35.395Z,99797.78
2023-01-18T23:37:02.516Z,99806.47
2023-01-18T23:39:47.639Z,99802.38
2023-01-18T23:42:33.146Z,99806.22
2023-01-18T23:45:18.563Z,99812.47
2023-01-18T23:48:04.349Z,99807.38
2023-01-18T23:50:50.194Z,99815.66
2023-01-18T23:53:35.430Z,99813.81
2023-01-18T23:56:02.464Z,99828.78
2023-01-18T23:58:29.335Z,99823.91
